Fairbanks, AK

2:56 AM AKDT on September 22, 2014 (GMT -0800)
Ladd Army Air Field | Change Station
CLOSE
Current Station
Airport
Location: Fairbanks Ft. Wainwright,
Elevation: 453 ft
Nearby Weather Stations

Elev 453 ft 64.84 °N, 147.61 °W | Updated 1 hour ago

Overcast
Overcast
35 °F
Feels Like 30 °F
N
6
Wind Variable Wind from WNW

Today
High -- | Low -- °F
--% Chance of Precip.
Yesterday
High -- | Low -- °F
Precip. -- in
7:34 AM 7:51 PM
Waning Crescent, 3% visible
Pressure 29.62 in
Visibility 10.0 miles
Clouds Mostly Cloudy 4600 ft
Overcast 10000 ft
Windchill 30 °F
Dew Point 29 °F
Humidity 78%
Rainfall 0.00 in
Snow Depth 6 in , 0 in , 0 in
UV 0 out of 12
Pollen Not available.
Air Quality Not available.
Flu Activity Not available.
METAR PAFB 220956Z AUTO 29005KT 10SM BKN046 OVC100 02/M02 A2960 RMK SLP028 T00171017 VIA AUTODIAL

More Conditions Fewer Conditions

Pressure 29.62 in
Visibility 10.0 miles
Clouds Mostly Cloudy 4600 ft
Overcast 10000 ft
Windchill 30 °F
Dew Point 29 °F
Humidity 78%
Rainfall 0.00 in
Snow Depth 6 in , 0 in , 0 in
UV 0 out of 12
Pollen Not available.
Air Quality Not available.
Flu Activity Not available.
METAR PAFB 220956Z AUTO 29005KT 10SM BKN046 OVC100 02/M02 A2960 RMK SLP028 T00171017 VIA AUTODIAL

More Conditions Fewer Conditions

10-Day Weather Forecast

Almanac

Astronomy

Sep. 22, 2014 Rise Set
Actual Time 7:34 AM AKDT 7:51 PM AKDT
Civil Twilight 6:45 AM AKDT 8:40 PM AKDT
Nautical Twilight 5:44 AM AKDT 9:39 PM AKDT
Astronomical Twilight 4:34 AM AKDT 10:48 PM AKDT
Moon 5:52 AM AKDT 7:12 PM AKDT
Length of Visible Light 13h 55m
Length of Day
12h 16m
Tomorrow will be 6m 38s shorter.
Waning Crescent, 3% of the Moon is Illuminated
Today
Waning Crescent
Sep 24
New
Oct 1
First Quarter
Oct 8
Full
Oct 15
Last Quarter

Today's Extremes

State Highs State Lows

Community

WunderPhotos

Upload Photos

1,755,408 photos uploaded!

Nearby

Snow Depth

Station Depth Elevation
Munson Ridge 1 in 3100 ft
MF Bradley River 6 in 2300 ft
Upper Tsaina River 0 in 1750 ft
Coldfoot 0 in 1040 ft
Point Mackenzie 1 in 200 ft

Earthquake Activity

City Distance Mag. Time & Date
No recent earthquake activity has been reported nearby.
Minimum magnitude displayed is 2.5.

Coastal Water Temperatures

Place Temperature
No Stations Reporting

Nearby Weather Stations